sensor_id;sensor_type;location;lat;lon;timestamp;P1;durP1;ratioP1;P2;durP2;ratioP2
2476;SDS011;1249;51.270;6.756;2022-11-03T00:00:56;19.73;;;15.90;;
2476;SDS011;1249;51.270;6.756;2022-11-03T00:03:23;25.40;;;18.50;;
2476;SDS011;1249;51.270;6.756;2022-11-03T00:05:50;17.80;;;13.13;;
2476;SDS011;1249;51.270;6.756;2022-11-03T00:08:36;31.03;;;28.37;;
2476;SDS011;1249;51.270;6.756;2022-11-03T00:11:05;19.90;;;18.23;;
2476;SDS011;1249;51.270;6.756;2022-11-03T00:13:34;18.33;;;16.67;;
2476;SDS011;1249;51.270;6.756;2022-11-03T00:16:04;20.03;;;18.30;;
2476;SDS011;1249;51.270;6.756;2022-11-03T00:18:31;21.17;;;19.03;;
2476;SDS011;1249;51.270;6.756;2022-11-03T00:20:59;23.93;;;22.53;;
2476;SDS011;1249;51.270;6.756;2022-11-03T00:23:27;19.47;;;17.47;;
2476;SDS011;1249;51.270;6.756;2022-11-03T00:26:02;17.53;;;15.77;;
2476;SDS011;1249;51.270;6.756;2022-11-03T00:28:30;22.53;;;20.47;;
2476;SDS011;1249;51.270;6.756;2022-11-03T00:30:57;23.93;;;21.43;;
2476;SDS011;1249;51.270;6.756;2022-11-03T00:33:28;21.90;;;19.63;;
2476;SDS011;1249;51.270;6.756;2022-11-03T00:35:56;26.70;;;24.57;;
2476;SDS011;1249;51.270;6.756;2022-11-03T00:38:23;19.13;;;17.47;;
2476;SDS011;1249;51.270;6.756;2022-11-03T00:40:51;29.90;;;27.30;;
2476;SDS011;1249;51.270;6.756;2022-11-03T00:43:19;18.03;;;15.90;;
2476;SDS011;1249;51.270;6.756;2022-11-03T00:45:46;21.10;;;19.00;;
2476;SDS011;1249;51.270;6.756;2022-11-03T00:48:13;26.90;;;24.50;;
2476;SDS011;1249;51.270;6.756;2022-11-03T00:51:00;43.00;;;39.57;;
2476;SDS011;1249;51.270;6.756;2022-11-03T00:53:27;16.23;;;14.87;;
2476;SDS011;1249;51.270;6.756;2022-11-03T00:55:55;23.07;;;21.47;;
2476;SDS011;1249;51.270;6.756;2022-11-03T00:58:21;27.30;;;22.97;;
2476;SDS011;1249;51.270;6.756;2022-11-03T01:00:48;24.90;;;22.50;;
2476;SDS011;1249;51.270;6.756;2022-11-03T01:03:15;24.90;;;23.10;;
2476;SDS011;1249;51.270;6.756;2022-11-03T01:05:42;21.40;;;16.30;;
2476;SDS011;1249;51.270;6.756;2022-11-03T01:08:31;21.23;;;17.60;;
2476;SDS011;1249;51.270;6.756;2022-11-03T01:11:05;21.20;;;19.37;;
2476;SDS011;1249;51.270;6.756;2022-11-03T01:13:51;19.50;;;17.87;;
2476;SDS011;1249;51.270;6.756;2022-11-03T01:16:17;25.27;;;23.07;;
2476;SDS011;1249;51.270;6.756;2022-11-03T01:18:44;23.17;;;20.80;;
2476;SDS011;1249;51.270;6.756;2022-11-03T01:21:11;22.43;;;20.33;;
2476;SDS011;1249;51.270;6.756;2022-11-03T01:23:39;31.60;;;29.20;;
2476;SDS011;1249;51.270;6.756;2022-11-03T01:26:06;24.63;;;22.43;;
2476;SDS011;1249;51.270;6.756;2022-11-03T01:28:34;30.83;;;27.87;;
2476;SDS011;1249;51.270;6.756;2022-11-03T01:31:02;13.93;;;12.73;;
2476;SDS011;1249;51.270;6.756;2022-11-03T01:33:29;24.17;;;22.23;;
2476;SDS011;1249;51.270;6.756;2022-11-03T01:35:56;35.40;;;32.30;;
2476;SDS011;1249;51.270;6.756;2022-11-03T01:38:23;16.80;;;12.03;;
2476;SDS011;1249;51.270;6.756;2022-11-03T01:40:51;17.47;;;16.10;;
2476;SDS011;1249;51.270;6.756;2022-11-03T01:43:19;15.23;;;12.87;;
2476;SDS011;1249;51.270;6.756;2022-11-03T01:45:47;25.23;;;23.30;;
2476;SDS011;1249;51.270;6.756;2022-11-03T01:48:16;25.57;;;20.27;;
2476;SDS011;1249;51.270;6.756;2022-11-03T01:50:46;13.87;;;12.30;;
2476;SDS011;1249;51.270;6.756;2022-11-03T01:53:13;22.63;;;20.70;;
2476;SDS011;1249;51.270;6.756;2022-11-03T01:55:41;17.90;;;14.87;;
2476;SDS011;1249;51.270;6.756;2022-11-03T01:58:12;21.83;;;19.87;;
2476;SDS011;1249;51.270;6.756;2022-11-03T02:00:42;16.40;;;14.80;;
2476;SDS011;1249;51.270;6.756;2022-11-03T02:03:12;33.43;;;30.90;;
2476;SDS011;1249;51.270;6.756;2022-11-03T02:05:39;26.03;;;23.67;;
2476;SDS011;1249;51.270;6.756;2022-11-03T02:08:08;17.83;;;16.00;;
2476;SDS011;1249;51.270;6.756;2022-11-03T02:10:39;21.80;;;18.40;;
2476;SDS011;1249;51.270;6.756;2022-11-03T02:13:08;20.10;;;18.10;;
2476;SDS011;1249;51.270;6.756;2022-11-03T02:15:42;27.10;;;25.40;;
2476;SDS011;1249;51.270;6.756;2022-11-03T02:18:10;30.13;;;28.03;;
2476;SDS011;1249;51.270;6.756;2022-11-03T02:20:37;27.03;;;20.27;;
2476;SDS011;1249;51.270;6.756;2022-11-03T02:23:16;23.50;;;21.63;;
2476;SDS011;1249;51.270;6.756;2022-11-03T02:25:51;44.50;;;41.10;;
2476;SDS011;1249;51.270;6.756;2022-11-03T02:28:20;63.73;;;60.00;;
2476;SDS011;1249;51.270;6.756;2022-11-03T02:30:51;96.10;;;90.37;;
2476;SDS011;1249;51.270;6.756;2022-11-03T02:33:29;46.43;;;42.67;;
2476;SDS011;1249;51.270;6.756;2022-11-03T02:36:02;54.77;;;51.07;;
2476;SDS011;1249;51.270;6.756;2022-11-03T02:38:36;37.77;;;34.97;;
2476;SDS011;1249;51.270;6.756;2022-11-03T02:41:09;18.00;;;16.33;;
2476;SDS011;1249;51.270;6.756;2022-11-03T02:43:38;49.70;;;46.50;;
2476;SDS011;1249;51.270;6.756;2022-11-03T02:46:06;17.27;;;15.97;;
2476;SDS011;1249;51.270;6.756;2022-11-03T02:48:34;44.53;;;41.47;;
2476;SDS011;1249;51.270;6.756;2022-11-03T02:51:01;27.20;;;25.20;;
2476;SDS011;1249;51.270;6.756;2022-11-03T02:53:29;32.10;;;29.20;;
2476;SDS011;1249;51.270;6.756;2022-11-03T02:55:58;20.30;;;17.30;;
2476;SDS011;1249;51.270;6.756;2022-11-03T02:58:29;31.07;;;28.27;;
2476;SDS011;1249;51.270;6.756;2022-11-03T03:01:04;30.50;;;27.40;;
2476;SDS011;1249;51.270;6.756;2022-11-03T03:03:39;66.73;;;62.93;;
2476;SDS011;1249;51.270;6.756;2022-11-03T03:06:08;41.57;;;38.30;;
2476;SDS011;1249;51.270;6.756;2022-11-03T03:08:40;36.80;;;34.17;;
2476;SDS011;1249;51.270;6.756;2022-11-03T03:11:11;22.20;;;20.10;;
2476;SDS011;1249;51.270;6.756;2022-11-03T03:13:40;36.13;;;33.57;;
2476;SDS011;1249;51.270;6.756;2022-11-03T03:16:10;19.63;;;18.23;;
2476;SDS011;1249;51.270;6.756;2022-11-03T03:18:44;34.93;;;31.43;;
2476;SDS011;1249;51.270;6.756;2022-11-03T03:21:15;61.23;;;57.60;;
2476;SDS011;1249;51.270;6.756;2022-11-03T03:23:46;73.37;;;70.10;;
2476;SDS011;1249;51.270;6.756;2022-11-03T03:26:18;77.27;;;72.83;;
2476;SDS011;1249;51.270;6.756;2022-11-03T03:28:51;58.03;;;53.73;;
2476;SDS011;1249;51.270;6.756;2022-11-03T03:31:21;41.93;;;39.10;;
2476;SDS011;1249;51.270;6.756;2022-11-03T03:33:51;51.73;;;48.90;;
2476;SDS011;1249;51.270;6.756;2022-11-03T03:36:21;47.90;;;44.13;;
2476;SDS011;1249;51.270;6.756;2022-11-03T03:38:52;30.03;;;27.80;;
2476;SDS011;1249;51.270;6.756;2022-11-03T03:41:21;38.27;;;35.43;;
2476;SDS011;1249;51.270;6.756;2022-11-03T03:43:53;25.07;;;23.03;;
2476;SDS011;1249;51.270;6.756;2022-11-03T03:46:22;25.53;;;23.63;;
2476;SDS011;1249;51.270;6.756;2022-11-03T03:48:54;26.53;;;23.93;;
2476;SDS011;1249;51.270;6.756;2022-11-03T03:51:21;18.13;;;16.50;;
2476;SDS011;1249;51.270;6.756;2022-11-03T03:53:51;21.37;;;19.70;;
2476;SDS011;1249;51.270;6.756;2022-11-03T03:56:18;71.03;;;66.33;;
2476;SDS011;1249;51.270;6.756;2022-11-03T03:58:52;55.50;;;52.50;;
2476;SDS011;1249;51.270;6.756;2022-11-03T04:01:19;32.43;;;30.00;;
2476;SDS011;1249;51.270;6.756;2022-11-03T04:03:46;44.83;;;41.47;;
2476;SDS011;1249;51.270;6.756;2022-11-03T04:06:12;16.83;;;14.63;;
2476;SDS011;1249;51.270;6.756;2022-11-03T04:08:39;96.03;;;90.07;;
2476;SDS011;1249;51.270;6.756;2022-11-03T04:11:06;23.63;;;21.07;;
2476;SDS011;1249;51.270;6.756;2022-11-03T04:13:50;40.93;;;38.73;;
2476;SDS011;1249;51.270;6.756;2022-11-03T04:16:35;44.70;;;41.07;;
2476;SDS011;1249;51.270;6.756;2022-11-03T04:19:20;26.00;;;23.50;;
2476;SDS011;1249;51.270;6.756;2022-11-03T04:22:04;86.30;;;80.67;;
2476;SDS011;1249;51.270;6.756;2022-11-03T04:24:42;83.33;;;78.60;;
2476;SDS011;1249;51.270;6.756;2022-11-03T04:27:18;99.03;;;93.43;;
2476;SDS011;1249;51.270;6.756;2022-11-03T04:29:52;23.20;;;21.80;;
2476;SDS011;1249;51.270;6.756;2022-11-03T04:32:24;16.53;;;14.37;;
2476;SDS011;1249;51.270;6.756;2022-11-03T04:34:51;80.00;;;75.50;;
2476;SDS011;1249;51.270;6.756;2022-11-03T04:37:18;79.40;;;74.47;;
2476;SDS011;1249;51.270;6.756;2022-11-03T04:39:44;78.33;;;73.83;;
2476;SDS011;1249;51.270;6.756;2022-11-03T04:42:13;41.63;;;38.80;;
2476;SDS011;1249;51.270;6.756;2022-11-03T04:44:42;46.13;;;43.17;;
2476;SDS011;1249;51.270;6.756;2022-11-03T04:47:10;40.57;;;37.20;;
2476;SDS011;1249;51.270;6.756;2022-11-03T04:49:39;49.53;;;46.23;;
2476;SDS011;1249;51.270;6.756;2022-11-03T04:52:08;63.77;;;59.13;;
2476;SDS011;1249;51.270;6.756;2022-11-03T04:54:39;18.20;;;11.10;;
2476;SDS011;1249;51.270;6.756;2022-11-03T04:57:07;113.37;;;107.50;;
2476;SDS011;1249;51.270;6.756;2022-11-03T04:59:37;103.77;;;97.67;;
2476;SDS011;1249;51.270;6.756;2022-11-03T05:02:06;69.77;;;65.93;;
2476;SDS011;1249;51.270;6.756;2022-11-03T05:04:36;32.07;;;29.80;;
2476;SDS011;1249;51.270;6.756;2022-11-03T05:07:07;25.63;;;23.90;;
2476;SDS011;1249;51.270;6.756;2022-11-03T05:09:45;118.67;;;111.80;;
2476;SDS011;1249;51.270;6.756;2022-11-03T05:12:11;50.50;;;47.37;;
2476;SDS011;1249;51.270;6.756;2022-11-03T05:14:38;92.37;;;87.43;;
2476;SDS011;1249;51.270;6.756;2022-11-03T05:17:06;23.07;;;20.77;;
2476;SDS011;1249;51.270;6.756;2022-11-03T05:19:40;72.30;;;68.50;;
2476;SDS011;1249;51.270;6.756;2022-11-03T05:22:11;109.67;;;103.60;;
2476;SDS011;1249;51.270;6.756;2022-11-03T05:24:41;32.27;;;29.47;;
2476;SDS011;1249;51.270;6.756;2022-11-03T05:27:07;15.97;;;14.40;;
2476;SDS011;1249;51.270;6.756;2022-11-03T05:29:40;87.70;;;82.83;;
2476;SDS011;1249;51.270;6.756;2022-11-03T05:32:09;56.60;;;52.37;;
2476;SDS011;1249;51.270;6.756;2022-11-03T05:34:39;100.67;;;95.43;;
2476;SDS011;1249;51.270;6.756;2022-11-03T05:37:17;96.87;;;90.80;;
2476;SDS011;1249;51.270;6.756;2022-11-03T05:39:49;116.47;;;109.73;;
2476;SDS011;1249;51.270;6.756;2022-11-03T05:42:19;91.90;;;85.90;;
2476;SDS011;1249;51.270;6.756;2022-11-03T05:44:55;99.43;;;93.37;;
2476;SDS011;1249;51.270;6.756;2022-11-03T05:47:23;115.13;;;108.67;;
2476;SDS011;1249;51.270;6.756;2022-11-03T05:49:51;103.30;;;97.53;;
2476;SDS011;1249;51.270;6.756;2022-11-03T05:52:23;45.93;;;42.17;;
2476;SDS011;1249;51.270;6.756;2022-11-03T05:54:52;21.67;;;19.30;;
2476;SDS011;1249;51.270;6.756;2022-11-03T05:57:21;80.00;;;75.67;;
2476;SDS011;1249;51.270;6.756;2022-11-03T05:59:49;60.07;;;56.33;;
2476;SDS011;1249;51.270;6.756;2022-11-03T06:02:21;89.43;;;84.77;;
2476;SDS011;1249;51.270;6.756;2022-11-03T06:04:58;76.80;;;71.93;;
2476;SDS011;1249;51.270;6.756;2022-11-03T06:07:26;62.37;;;57.73;;
2476;SDS011;1249;51.270;6.756;2022-11-03T06:09:55;73.00;;;68.30;;
2476;SDS011;1249;51.270;6.756;2022-11-03T06:12:23;19.23;;;17.30;;
2476;SDS011;1249;51.270;6.756;2022-11-03T06:14:51;17.97;;;16.07;;
2476;SDS011;1249;51.270;6.756;2022-11-03T06:17:18;27.30;;;25.30;;
2476;SDS011;1249;51.270;6.756;2022-11-03T06:19:48;123.20;;;116.30;;
2476;SDS011;1249;51.270;6.756;2022-11-03T06:22:18;98.87;;;93.43;;
2476;SDS011;1249;51.270;6.756;2022-11-03T06:24:48;97.30;;;91.30;;
2476;SDS011;1249;51.270;6.756;2022-11-03T06:27:17;96.60;;;91.20;;
2476;SDS011;1249;51.270;6.756;2022-11-03T06:29:47;95.87;;;90.20;;
2476;SDS011;1249;51.270;6.756;2022-11-03T06:32:17;93.00;;;87.90;;
2476;SDS011;1249;51.270;6.756;2022-11-03T06:34:45;76.33;;;71.53;;
2476;SDS011;1249;51.270;6.756;2022-11-03T06:37:20;108.17;;;101.83;;
2476;SDS011;1249;51.270;6.756;2022-11-03T06:39:52;142.30;;;135.33;;
2476;SDS011;1249;51.270;6.756;2022-11-03T06:42:24;81.80;;;77.40;;
2476;SDS011;1249;51.270;6.756;2022-11-03T06:44:54;81.90;;;76.80;;
2476;SDS011;1249;51.270;6.756;2022-11-03T06:47:21;85.27;;;79.87;;
2476;SDS011;1249;51.270;6.756;2022-11-03T06:49:50;53.77;;;50.20;;
2476;SDS011;1249;51.270;6.756;2022-11-03T06:52:21;91.23;;;85.17;;
2476;SDS011;1249;51.270;6.756;2022-11-03T06:54:53;82.97;;;77.33;;
2476;SDS011;1249;51.270;6.756;2022-11-03T06:57:24;41.77;;;38.23;;
2476;SDS011;1249;51.270;6.756;2022-11-03T06:59:51;27.43;;;25.63;;
2476;SDS011;1249;51.270;6.756;2022-11-03T07:02:24;21.07;;;14.73;;
2476;SDS011;1249;51.270;6.756;2022-11-03T07:05:17;23.53;;;21.20;;
2476;SDS011;1249;51.270;6.756;2022-11-03T07:07:47;29.27;;;27.10;;
2476;SDS011;1249;51.270;6.756;2022-11-03T07:10:15;24.43;;;22.13;;
2476;SDS011;1249;51.270;6.756;2022-11-03T07:12:42;24.23;;;22.13;;
2476;SDS011;1249;51.270;6.756;2022-11-03T07:15:19;24.57;;;22.60;;
2476;SDS011;1249;51.270;6.756;2022-11-03T07:17:50;24.80;;;22.30;;
2476;SDS011;1249;51.270;6.756;2022-11-03T07:20:17;25.07;;;22.37;;
2476;SDS011;1249;51.270;6.756;2022-11-03T07:22:44;44.63;;;41.93;;
2476;SDS011;1249;51.270;6.756;2022-11-03T07:25:13;42.83;;;40.37;;
2476;SDS011;1249;51.270;6.756;2022-11-03T07:27:45;58.20;;;54.33;;
2476;SDS011;1249;51.270;6.756;2022-11-03T07:30:16;67.20;;;63.30;;
2476;SDS011;1249;51.270;6.756;2022-11-03T07:32:45;50.47;;;46.93;;
2476;SDS011;1249;51.270;6.756;2022-11-03T07:35:18;82.50;;;78.17;;
2476;SDS011;1249;51.270;6.756;2022-11-03T07:37:53;85.10;;;80.07;;
2476;SDS011;1249;51.270;6.756;2022-11-03T07:40:23;74.13;;;70.00;;
2476;SDS011;1249;51.270;6.756;2022-11-03T07:42:51;74.90;;;70.57;;
2476;SDS011;1249;51.270;6.756;2022-11-03T07:45:32;70.50;;;65.90;;
2476;SDS011;1249;51.270;6.756;2022-11-03T07:48:04;75.03;;;70.63;;
2476;SDS011;1249;51.270;6.756;2022-11-03T07:50:43;68.57;;;63.30;;
2476;SDS011;1249;51.270;6.756;2022-11-03T07:53:11;83.47;;;79.17;;
2476;SDS011;1249;51.270;6.756;2022-11-03T07:55:44;83.10;;;78.63;;
2476;SDS011;1249;51.270;6.756;2022-11-03T07:58:19;88.50;;;83.20;;
2476;SDS011;1249;51.270;6.756;2022-11-03T08:00:48;93.20;;;87.77;;
2476;SDS011;1249;51.270;6.756;2022-11-03T08:03:20;88.10;;;82.83;;
2476;SDS011;1249;51.270;6.756;2022-11-03T08:05:53;83.70;;;78.67;;
2476;SDS011;1249;51.270;6.756;2022-11-03T08:08:20;88.00;;;82.33;;
2476;SDS011;1249;51.270;6.756;2022-11-03T08:10:48;136.37;;;129.00;;
2476;SDS011;1249;51.270;6.756;2022-11-03T08:13:14;87.97;;;83.17;;
2476;SDS011;1249;51.270;6.756;2022-11-03T08:15:41;90.77;;;84.90;;
2476;SDS011;1249;51.270;6.756;2022-11-03T08:18:08;89.43;;;84.93;;
2476;SDS011;1249;51.270;6.756;2022-11-03T08:20:35;93.20;;;87.77;;
2476;SDS011;1249;51.270;6.756;2022-11-03T08:23:01;75.00;;;70.03;;
2476;SDS011;1249;51.270;6.756;2022-11-03T08:25:28;84.93;;;79.97;;
2476;SDS011;1249;51.270;6.756;2022-11-03T08:27:56;83.90;;;78.60;;
2476;SDS011;1249;51.270;6.756;2022-11-03T08:30:24;92.30;;;86.77;;
2476;SDS011;1249;51.270;6.756;2022-11-03T08:32:51;82.87;;;78.13;;
2476;SDS011;1249;51.270;6.756;2022-11-03T08:35:18;99.60;;;94.87;;
2476;SDS011;1249;51.270;6.756;2022-11-03T08:37:45;84.47;;;79.37;;
2476;SDS011;1249;51.270;6.756;2022-11-03T08:40:12;102.30;;;96.77;;
2476;SDS011;1249;51.270;6.756;2022-11-03T08:42:39;100.80;;;94.67;;
2476;SDS011;1249;51.270;6.756;2022-11-03T08:45:09;90.80;;;85.37;;
2476;SDS011;1249;51.270;6.756;2022-11-03T08:47:38;94.13;;;88.63;;
2476;SDS011;1249;51.270;6.756;2022-11-03T08:50:05;94.80;;;88.17;;
2476;SDS011;1249;51.270;6.756;2022-11-03T08:52:32;120.43;;;113.27;;
2476;SDS011;1249;51.270;6.756;2022-11-03T08:54:59;94.67;;;89.87;;
2476;SDS011;1249;51.270;6.756;2022-11-03T08:57:26;102.63;;;96.47;;
2476;SDS011;1249;51.270;6.756;2022-11-03T08:59:55;78.17;;;73.20;;
2476;SDS011;1249;51.270;6.756;2022-11-03T09:02:24;99.20;;;93.03;;
2476;SDS011;1249;51.270;6.756;2022-11-03T09:04:51;80.33;;;75.57;;
2476;SDS011;1249;51.270;6.756;2022-11-03T09:07:17;98.53;;;93.30;;
2476;SDS011;1249;51.270;6.756;2022-11-03T09:09:44;104.33;;;98.30;;
2476;SDS011;1249;51.270;6.756;2022-11-03T09:12:11;102.57;;;96.73;;
2476;SDS011;1249;51.270;6.756;2022-11-03T09:14:37;106.57;;;100.70;;
2476;SDS011;1249;51.270;6.756;2022-11-03T09:17:04;98.00;;;92.67;;
2476;SDS011;1249;51.270;6.756;2022-11-03T09:19:32;103.67;;;97.87;;
2476;SDS011;1249;51.270;6.756;2022-11-03T09:21:59;97.43;;;91.63;;
2476;SDS011;1249;51.270;6.756;2022-11-03T09:24:26;92.90;;;87.53;;
2476;SDS011;1249;51.270;6.756;2022-11-03T09:26:54;94.20;;;89.17;;
2476;SDS011;1249;51.270;6.756;2022-11-03T09:29:21;89.20;;;84.27;;
2476;SDS011;1249;51.270;6.756;2022-11-03T09:31:49;89.80;;;84.33;;
2476;SDS011;1249;51.270;6.756;2022-11-03T09:34:15;110.10;;;104.47;;
2476;SDS011;1249;51.270;6.756;2022-11-03T09:36:44;92.30;;;87.63;;
2476;SDS011;1249;51.270;6.756;2022-11-03T09:39:10;107.23;;;101.07;;
2476;SDS011;1249;51.270;6.756;2022-11-03T09:41:37;90.43;;;85.10;;
2476;SDS011;1249;51.270;6.756;2022-11-03T09:44:05;95.73;;;90.07;;
2476;SDS011;1249;51.270;6.756;2022-11-03T09:46:37;91.00;;;85.70;;
2476;SDS011;1249;51.270;6.756;2022-11-03T09:49:09;98.60;;;93.43;;
2476;SDS011;1249;51.270;6.756;2022-11-03T09:51:38;116.53;;;110.37;;
2476;SDS011;1249;51.270;6.756;2022-11-03T09:54:12;88.33;;;82.77;;
2476;SDS011;1249;51.270;6.756;2022-11-03T09:56:40;104.17;;;98.63;;
2476;SDS011;1249;51.270;6.756;2022-11-03T09:59:15;94.07;;;88.53;;
2476;SDS011;1249;51.270;6.756;2022-11-03T10:01:44;91.63;;;86.70;;
2476;SDS011;1249;51.270;6.756;2022-11-03T10:04:22;87.80;;;83.03;;
2476;SDS011;1249;51.270;6.756;2022-11-03T10:06:54;86.87;;;82.33;;
2476;SDS011;1249;51.270;6.756;2022-11-03T10:09:35;102.53;;;96.73;;
2476;SDS011;1249;51.270;6.756;2022-11-03T10:12:14;128.03;;;121.20;;
2476;SDS011;1249;51.270;6.756;2022-11-03T10:14:44;96.83;;;91.40;;
2476;SDS011;1249;51.270;6.756;2022-11-03T10:17:18;79.10;;;74.27;;
2476;SDS011;1249;51.270;6.756;2022-11-03T10:19:58;88.97;;;84.17;;
2476;SDS011;1249;51.270;6.756;2022-11-03T10:22:30;103.20;;;97.23;;
2476;SDS011;1249;51.270;6.756;2022-11-03T10:28:12;95.97;;;90.50;;
2476;SDS011;1249;51.270;6.756;2022-11-03T10:30:50;95.57;;;91.33;;
2476;SDS011;1249;51.270;6.756;2022-11-03T10:33:29;107.67;;;101.13;;
2476;SDS011;1249;51.270;6.756;2022-11-03T10:36:18;79.03;;;73.90;;
2476;SDS011;1249;51.270;6.756;2022-11-03T10:38:51;96.43;;;89.83;;
2476;SDS011;1249;51.270;6.756;2022-11-03T10:41:29;92.93;;;87.37;;
2476;SDS011;1249;51.270;6.756;2022-11-03T10:44:03;96.37;;;90.27;;
2476;SDS011;1249;51.270;6.756;2022-11-03T10:46:34;96.60;;;91.43;;
2476;SDS011;1249;51.270;6.756;2022-11-03T10:49:11;113.13;;;106.67;;
2476;SDS011;1249;51.270;6.756;2022-11-03T10:51:42;118.13;;;112.10;;
2476;SDS011;1249;51.270;6.756;2022-11-03T10:54:12;92.33;;;86.93;;
2476;SDS011;1249;51.270;6.756;2022-11-03T10:56:45;102.63;;;96.67;;
2476;SDS011;1249;51.270;6.756;2022-11-03T10:59:16;96.00;;;90.73;;
2476;SDS011;1249;51.270;6.756;2022-11-03T11:01:47;101.87;;;96.77;;
2476;SDS011;1249;51.270;6.756;2022-11-03T11:04:17;126.33;;;118.37;;
2476;SDS011;1249;51.270;6.756;2022-11-03T11:06:52;107.23;;;101.50;;
2476;SDS011;1249;51.270;6.756;2022-11-03T11:09:24;135.77;;;128.43;;
2476;SDS011;1249;51.270;6.756;2022-11-03T11:12:04;109.27;;;102.47;;
2476;SDS011;1249;51.270;6.756;2022-11-03T11:14:49;92.27;;;86.50;;
2476;SDS011;1249;51.270;6.756;2022-11-03T11:20:28;86.60;;;81.70;;
2476;SDS011;1249;51.270;6.756;2022-11-03T11:34:59;112.50;;;106.57;;
2476;SDS011;1249;51.270;6.756;2022-11-03T11:37:39;111.13;;;104.27;;
2476;SDS011;1249;51.270;6.756;2022-11-03T11:40:11;118.83;;;112.80;;
2476;SDS011;1249;51.270;6.756;2022-11-03T11:49:15;78.90;;;73.53;;
2476;SDS011;1249;51.270;6.756;2022-11-03T11:51:50;86.07;;;81.20;;
2476;SDS011;1249;51.270;6.756;2022-11-03T11:54:18;99.00;;;93.17;;
2476;SDS011;1249;51.270;6.756;2022-11-03T11:56:46;90.77;;;85.73;;
2476;SDS011;1249;51.270;6.756;2022-11-03T11:59:15;59.47;;;55.67;;
2476;SDS011;1249;51.270;6.756;2022-11-03T12:01:49;55.57;;;51.20;;
2476;SDS011;1249;51.270;6.756;2022-11-03T12:04:19;57.43;;;53.63;;
2476;SDS011;1249;51.270;6.756;2022-11-03T12:06:55;70.87;;;66.10;;
2476;SDS011;1249;51.270;6.756;2022-11-03T12:09:24;77.10;;;72.23;;
2476;SDS011;1249;51.270;6.756;2022-11-03T12:11:54;52.07;;;48.30;;
2476;SDS011;1249;51.270;6.756;2022-11-03T12:14:30;38.90;;;36.33;;
2476;SDS011;1249;51.270;6.756;2022-11-03T12:19:59;55.03;;;51.17;;
2476;SDS011;1249;51.270;6.756;2022-11-03T12:22:50;59.03;;;55.23;;
2476;SDS011;1249;51.270;6.756;2022-11-03T12:25:31;75.53;;;70.90;;
2476;SDS011;1249;51.270;6.756;2022-11-03T12:28:04;82.50;;;78.33;;
2476;SDS011;1249;51.270;6.756;2022-11-03T12:30:38;95.50;;;89.93;;
2476;SDS011;1249;51.270;6.756;2022-11-03T12:33:08;80.87;;;76.33;;
2476;SDS011;1249;51.270;6.756;2022-11-03T12:35:46;101.40;;;95.60;;
2476;SDS011;1249;51.270;6.756;2022-11-03T12:38:22;113.97;;;108.33;;
2476;SDS011;1249;51.270;6.756;2022-11-03T12:40:55;71.63;;;66.60;;
2476;SDS011;1249;51.270;6.756;2022-11-03T12:43:46;92.43;;;86.13;;
2476;SDS011;1249;51.270;6.756;2022-11-03T12:46:17;94.80;;;88.93;;
2476;SDS011;1249;51.270;6.756;2022-11-03T12:48:53;109.30;;;103.43;;
2476;SDS011;1249;51.270;6.756;2022-11-03T12:51:23;116.33;;;109.77;;
2476;SDS011;1249;51.270;6.756;2022-11-03T12:53:59;92.17;;;87.17;;
2476;SDS011;1249;51.270;6.756;2022-11-03T12:56:29;74.77;;;70.43;;
2476;SDS011;1249;51.270;6.756;2022-11-03T12:58:56;95.70;;;90.53;;
2476;SDS011;1249;51.270;6.756;2022-11-03T13:01:23;106.13;;;100.17;;
2476;SDS011;1249;51.270;6.756;2022-11-03T13:03:50;96.73;;;91.20;;
2476;SDS011;1249;51.270;6.756;2022-11-03T13:06:19;100.90;;;94.57;;
2476;SDS011;1249;51.270;6.756;2022-11-03T13:08:49;82.77;;;78.00;;
2476;SDS011;1249;51.270;6.756;2022-11-03T13:11:17;72.67;;;68.20;;
2476;SDS011;1249;51.270;6.756;2022-11-03T13:14:02;89.60;;;84.63;;
2476;SDS011;1249;51.270;6.756;2022-11-03T13:16:30;105.17;;;100.40;;
2476;SDS011;1249;51.270;6.756;2022-11-03T13:19:07;87.87;;;83.10;;
2476;SDS011;1249;51.270;6.756;2022-11-03T13:21:38;90.00;;;85.07;;
2476;SDS011;1249;51.270;6.756;2022-11-03T13:24:08;91.90;;;85.93;;
2476;SDS011;1249;51.270;6.756;2022-11-03T13:26:39;69.60;;;65.60;;
2476;SDS011;1249;51.270;6.756;2022-11-03T13:29:06;80.33;;;75.70;;
2476;SDS011;1249;51.270;6.756;2022-11-03T13:31:32;69.77;;;64.87;;
2476;SDS011;1249;51.270;6.756;2022-11-03T13:34:02;78.33;;;73.87;;
2476;SDS011;1249;51.270;6.756;2022-11-03T13:36:38;64.67;;;61.03;;
2476;SDS011;1249;51.270;6.756;2022-11-03T13:39:05;57.37;;;54.07;;
2476;SDS011;1249;51.270;6.756;2022-11-03T13:41:34;67.33;;;63.23;;
2476;SDS011;1249;51.270;6.756;2022-11-03T13:44:06;80.17;;;75.27;;
2476;SDS011;1249;51.270;6.756;2022-11-03T13:46:34;59.47;;;55.23;;
2476;SDS011;1249;51.270;6.756;2022-11-03T13:49:01;75.03;;;70.00;;
2476;SDS011;1249;51.270;6.756;2022-11-03T13:51:28;69.13;;;65.37;;
2476;SDS011;1249;51.270;6.756;2022-11-03T13:53:56;68.57;;;64.67;;
2476;SDS011;1249;51.270;6.756;2022-11-03T13:56:23;76.43;;;71.77;;
2476;SDS011;1249;51.270;6.756;2022-11-03T13:58:50;79.23;;;74.50;;
2476;SDS011;1249;51.270;6.756;2022-11-03T14:01:19;52.50;;;49.33;;
2476;SDS011;1249;51.270;6.756;2022-11-03T14:03:46;61.17;;;57.17;;
2476;SDS011;1249;51.270;6.756;2022-11-03T14:13:46;37.67;;;34.90;;
2476;SDS011;1249;51.270;6.756;2022-11-03T14:16:19;52.57;;;49.37;;
2476;SDS011;1249;51.270;6.756;2022-11-03T14:18:49;41.33;;;38.40;;
2476;SDS011;1249;51.270;6.756;2022-11-03T14:21:16;56.23;;;52.33;;
2476;SDS011;1249;51.270;6.756;2022-11-03T14:23:43;53.77;;;50.10;;
2476;SDS011;1249;51.270;6.756;2022-11-03T14:27:31;52.60;;;49.57;;
2476;SDS011;1249;51.270;6.756;2022-11-03T14:32:59;45.53;;;42.53;;
2476;SDS011;1249;51.270;6.756;2022-11-03T14:38:10;35.40;;;32.27;;
2476;SDS011;1249;51.270;6.756;2022-11-03T14:40:36;42.50;;;39.57;;
2476;SDS011;1249;51.270;6.756;2022-11-03T14:43:21;32.27;;;29.57;;
2476;SDS011;1249;51.270;6.756;2022-11-03T14:45:47;41.50;;;38.33;;
2476;SDS011;1249;51.270;6.756;2022-11-03T14:57:47;46.87;;;43.57;;
2476;SDS011;1249;51.270;6.756;2022-11-03T15:03:41;44.27;;;40.67;;
2476;SDS011;1249;51.270;6.756;2022-11-03T15:09:57;42.40;;;39.63;;
2476;SDS011;1249;51.270;6.756;2022-11-03T15:15:58;36.33;;;33.07;;
2476;SDS011;1249;51.270;6.756;2022-11-03T15:18:27;32.57;;;29.87;;
2476;SDS011;1249;51.270;6.756;2022-11-03T15:21:01;44.97;;;41.57;;
2476;SDS011;1249;51.270;6.756;2022-11-03T15:23:33;36.30;;;33.37;;
2476;SDS011;1249;51.270;6.756;2022-11-03T15:25:59;49.30;;;46.27;;
2476;SDS011;1249;51.270;6.756;2022-11-03T15:28:26;41.43;;;38.30;;
2476;SDS011;1249;51.270;6.756;2022-11-03T15:30:53;38.30;;;35.43;;
2476;SDS011;1249;51.270;6.756;2022-11-03T15:33:22;39.20;;;36.60;;
2476;SDS011;1249;51.270;6.756;2022-11-03T15:35:52;41.67;;;38.43;;
2476;SDS011;1249;51.270;6.756;2022-11-03T15:38:19;47.97;;;44.77;;
2476;SDS011;1249;51.270;6.756;2022-11-03T15:40:46;45.80;;;42.50;;
2476;SDS011;1249;51.270;6.756;2022-11-03T15:43:13;50.67;;;47.10;;
2476;SDS011;1249;51.270;6.756;2022-11-03T15:45:40;52.87;;;49.30;;
2476;SDS011;1249;51.270;6.756;2022-11-03T15:48:07;49.13;;;46.43;;
2476;SDS011;1249;51.270;6.756;2022-11-03T15:50:35;63.50;;;59.30;;
2476;SDS011;1249;51.270;6.756;2022-11-03T15:53:02;60.23;;;56.47;;
2476;SDS011;1249;51.270;6.756;2022-11-03T15:55:29;58.87;;;55.20;;
2476;SDS011;1249;51.270;6.756;2022-11-03T15:57:56;62.37;;;57.90;;
2476;SDS011;1249;51.270;6.756;2022-11-03T16:00:22;44.53;;;40.87;;
2476;SDS011;1249;51.270;6.756;2022-11-03T16:02:49;48.90;;;45.10;;
2476;SDS011;1249;51.270;6.756;2022-11-03T16:05:16;48.47;;;44.80;;
2476;SDS011;1249;51.270;6.756;2022-11-03T16:07:44;43.43;;;40.00;;